ITY3489 LIPZ-LSZH
Flight info
| Callsign | ITY3489 |
|---|---|
| Flight time | 0h 47m |
| Altitude | 30000 |
| Route | ROKIB8X/04R ROKIB DCT NAXAV DCT UNIMI L12 MOGTI P66 KPT L856 NEGRA |
| Aircraft | A320/M-SDE3FGHIRWY/LB1 |
Departure
| Time | 2026-02-18 21:47 |
|---|---|
| Airport | Venice Marco Polo Airport (LIPZ) |
Arrival
| Time | 2026-02-18 22:35 |
|---|---|
| Airport | Zürich Airport (LSZH) |
| Time | Latitude | Longitude | Altitude | Speed | Heading |
|---|---|---|---|---|---|
| 2026-02-18 20:56 | 45.50423 | 12.34199 | 20 ft | 0 kts | 266° |
| 2026-02-18 21:29 | 45.50424 | 12.34217 | 20 ft | 3 kts | 262° |
| 2026-02-18 21:29 | 45.50428 | 12.34245 | 20 ft | 3 kts | 253° |
| 2026-02-18 21:29 | 45.50434 | 12.34272 | 21 ft | 3 kts | 244° |
| 2026-02-18 21:30 | 45.50444 | 12.34296 | 23 ft | 3 kts | 233° |
| 2026-02-18 21:30 | 45.50457 | 12.34318 | 20 ft | 3 kts | 222° |
| 2026-02-18 21:30 | 45.50473 | 12.34336 | 22 ft | 3 kts | 211° |
| 2026-02-18 21:30 | 45.50491 | 12.34349 | 23 ft | 3 kts | 202° |
| 2026-02-18 21:31 | 45.50510 | 12.34359 | 21 ft | 3 kts | 195° |
| 2026-02-18 21:31 | 45.50529 | 12.34365 | 21 ft | 3 kts | 192° |
| 2026-02-18 21:31 | 45.50549 | 12.34372 | 20 ft | 3 kts | 197° |
| 2026-02-18 21:31 | 45.50563 | 12.34380 | 21 ft | 2 kts | 218° |
| 2026-02-18 21:32 | 45.50565 | 12.34382 | 21 ft | 5 kts | 219° |
| 2026-02-18 21:32 | 45.50564 | 12.34381 | 21 ft | 1 kts | 219° |
| 2026-02-18 21:32 | 45.50562 | 12.34379 | 20 ft | 0 kts | 219° |
| 2026-02-18 21:37 | 45.50502 | 12.34344 | 22 ft | 13 kts | 178° |
| 2026-02-18 21:37 | 45.50387 | 12.34349 | 20 ft | 20 kts | 178° |
| 2026-02-18 21:37 | 45.50287 | 12.34355 | 20 ft | 9 kts | 177° |
| 2026-02-18 21:38 | 45.50197 | 12.34361 | 20 ft | 18 kts | 181° |
| 2026-02-18 21:38 | 45.50070 | 12.34268 | 19 ft | 26 kts | 221° |
| 2026-02-18 21:38 | 45.49910 | 12.34065 | 18 ft | 34 kts | 222° |
| 2026-02-18 21:38 | 45.49769 | 12.33883 | 18 ft | 14 kts | 222° |
| 2026-02-18 21:39 | 45.49676 | 12.33763 | 21 ft | 22 kts | 222° |
| 2026-02-18 21:39 | 45.49571 | 12.33629 | 20 ft | 9 kts | 221° |
| 2026-02-18 21:39 | 45.49560 | 12.33616 | 20 ft | 0 kts | 221° |
| 2026-02-18 21:40 | 45.49559 | 12.33614 | 20 ft | 0 kts | 221° |
| 2026-02-18 21:43 | 45.49558 | 12.33614 | 20 ft | 0 kts | 221° |
| 2026-02-18 21:44 | 45.49558 | 12.33613 | 22 ft | 0 kts | 221° |
| 2026-02-18 21:45 | 45.49508 | 12.33611 | 20 ft | 0 kts | 134° |
| 2026-02-18 21:46 | 45.49507 | 12.33612 | 20 ft | 1 kts | 134° |
| 2026-02-18 21:46 | 45.49474 | 12.33660 | 20 ft | 12 kts | 133° |
| 2026-02-18 21:46 | 45.49422 | 12.33744 | 19 ft | 8 kts | 127° |
| 2026-02-18 21:46 | 45.49435 | 12.33803 | 20 ft | 0 kts | 44° |
| 2026-02-18 21:47 | 45.49530 | 12.33930 | 19 ft | 62 kts | 43° |
| 2026-02-18 21:47 | 45.50086 | 12.34645 | 21 ft | 149 kts | 42° |
| 2026-02-18 21:47 | 45.50932 | 12.35728 | 668 ft | 167 kts | 42° |
| 2026-02-18 21:48 | 45.51761 | 12.36910 | 1800 ft | 170 kts | 47° |
| 2026-02-18 21:48 | 45.52556 | 12.38079 | 2748 ft | 161 kts | 46° |
| 2026-02-18 21:48 | 45.53353 | 12.39279 | 3287 ft | 172 kts | 57° |
| 2026-02-18 21:48 | 45.53717 | 12.40936 | 3711 ft | 185 kts | 95° |
| 2026-02-18 21:49 | 45.53227 | 12.44838 | 4619 ft | 222 kts | 102° |
| 2026-02-18 21:49 | 45.52983 | 12.47062 | 5356 ft | 231 kts | 101° |
| 2026-02-18 21:49 | 45.52759 | 12.49348 | 6170 ft | 234 kts | 101° |
| 2026-02-18 21:50 | 45.52253 | 12.51538 | 6923 ft | 232 kts | 128° |
| 2026-02-18 21:50 | 45.51045 | 12.52976 | 7618 ft | 227 kts | 164° |
| 2026-02-18 21:50 | 45.49512 | 12.53206 | 8325 ft | 222 kts | 196° |
| 2026-02-18 21:50 | 45.48067 | 12.52471 | 9080 ft | 221 kts | 211° |
| 2026-02-18 21:51 | 45.46871 | 12.51136 | 9808 ft | 220 kts | 235° |
| 2026-02-18 21:51 | 45.46207 | 12.49183 | 10336 ft | 228 kts | 261° |
| 2026-02-18 21:51 | 45.46335 | 12.46863 | 10609 ft | 251 kts | 284° |
| 2026-02-18 21:51 | 45.46919 | 12.44393 | 10887 ft | 274 kts | 287° |
| 2026-02-18 21:52 | 45.47566 | 12.41742 | 11220 ft | 292 kts | 287° |
| 2026-02-18 21:52 | 45.48226 | 12.38923 | 11606 ft | 308 kts | 286° |
| 2026-02-18 21:52 | 45.48905 | 12.35940 | 11985 ft | 323 kts | 286° |
| 2026-02-18 21:52 | 45.49596 | 12.32839 | 12520 ft | 331 kts | 286° |
| 2026-02-18 21:53 | 45.50977 | 12.26528 | 13893 ft | 338 kts | 285° |
| 2026-02-18 21:53 | 45.51675 | 12.23318 | 14539 ft | 340 kts | 285° |
| 2026-02-18 21:53 | 45.52375 | 12.20089 | 15189 ft | 342 kts | 285° |
| 2026-02-18 21:54 | 45.53081 | 12.16837 | 15835 ft | 344 kts | 286° |
| 2026-02-18 21:54 | 45.53799 | 12.13563 | 16477 ft | 347 kts | 285° |
| 2026-02-18 21:54 | 45.54512 | 12.10306 | 17095 ft | 349 kts | 285° |
| 2026-02-18 21:54 | 45.55231 | 12.06982 | 17721 ft | 352 kts | 285° |
| 2026-02-18 21:55 | 45.55955 | 12.03623 | 18324 ft | 354 kts | 285° |
| 2026-02-18 21:55 | 45.56684 | 12.00250 | 18856 ft | 357 kts | 285° |
| 2026-02-18 21:55 | 45.57600 | 11.96941 | 19391 ft | 361 kts | 295° |
| 2026-02-18 21:55 | 45.59050 | 11.93990 | 19918 ft | 367 kts | 309° |
| 2026-02-18 21:56 | 45.61012 | 11.91657 | 20434 ft | 376 kts | 323° |
| 2026-02-18 21:56 | 45.63363 | 11.89910 | 20958 ft | 382 kts | 329° |
| 2026-02-18 21:56 | 45.65792 | 11.88300 | 21466 ft | 385 kts | 329° |
| 2026-02-18 21:56 | 45.68228 | 11.86672 | 21964 ft | 387 kts | 329° |
| 2026-02-18 21:57 | 45.73132 | 11.83343 | 22916 ft | 391 kts | 328° |
| 2026-02-18 21:57 | 45.75563 | 11.81675 | 23365 ft | 394 kts | 328° |
| 2026-02-18 21:57 | 45.78043 | 11.79961 | 23773 ft | 396 kts | 328° |
| 2026-02-18 21:58 | 45.80533 | 11.78233 | 24167 ft | 398 kts | 328° |
| 2026-02-18 21:58 | 45.83036 | 11.76501 | 24556 ft | 400 kts | 328° |
| 2026-02-18 21:58 | 45.85548 | 11.74759 | 24951 ft | 402 kts | 328° |
| 2026-02-18 21:58 | 45.88073 | 11.73007 | 25354 ft | 403 kts | 328° |
| 2026-02-18 21:59 | 45.90582 | 11.71272 | 25807 ft | 403 kts | 328° |
| 2026-02-18 21:59 | 45.93100 | 11.69535 | 26334 ft | 400 kts | 328° |
| 2026-02-18 21:59 | 45.95599 | 11.67811 | 26869 ft | 397 kts | 328° |
| 2026-02-18 21:59 | 45.98087 | 11.66096 | 27381 ft | 396 kts | 327° |
| 2026-02-18 22:00 | 45.99729 | 11.64955 | 27723 ft | 394 kts | 327° |
| 2026-02-18 22:00 | 46.02193 | 11.63236 | 28212 ft | 392 kts | 327° |
| 2026-02-18 22:00 | 46.04640 | 11.61531 | 28679 ft | 390 kts | 327° |
| 2026-02-18 22:00 | 46.07073 | 11.59834 | 29179 ft | 387 kts | 327° |
| 2026-02-18 22:01 | 46.11895 | 11.56449 | 29906 ft | 386 kts | 326° |
| 2026-02-18 22:01 | 46.14312 | 11.54733 | 29940 ft | 387 kts | 326° |
| 2026-02-18 22:02 | 46.19164 | 11.51323 | 29889 ft | 387 kts | 327° |
| 2026-02-18 22:02 | 46.24010 | 11.47929 | 29896 ft | 387 kts | 327° |
| 2026-02-18 22:03 | 46.28861 | 11.44524 | 29907 ft | 387 kts | 327° |
| 2026-02-18 22:03 | 46.33717 | 11.41138 | 29880 ft | 387 kts | 327° |
| 2026-02-18 22:04 | 46.38564 | 11.37724 | 29875 ft | 387 kts | 326° |
| 2026-02-18 22:04 | 46.43395 | 11.34282 | 29916 ft | 386 kts | 326° |
| 2026-02-18 22:05 | 46.50714 | 11.29361 | 29904 ft | 391 kts | 328° |
| 2026-02-18 22:05 | 46.55687 | 11.26173 | 29910 ft | 391 kts | 328° |
| 2026-02-18 22:06 | 46.60663 | 11.22978 | 29877 ft | 390 kts | 328° |
| 2026-02-18 22:06 | 46.65597 | 11.19772 | 29862 ft | 389 kts | 328° |
| 2026-02-18 22:07 | 46.70542 | 11.16568 | 29844 ft | 388 kts | 328° |
| 2026-02-18 22:07 | 46.75486 | 11.13358 | 29845 ft | 389 kts | 328° |
| 2026-02-18 22:08 | 46.80425 | 11.10137 | 29805 ft | 388 kts | 328° |
| 2026-02-18 22:08 | 46.85370 | 11.06923 | 29843 ft | 388 kts | 328° |
| 2026-02-18 22:09 | 46.92749 | 11.02001 | 29797 ft | 390 kts | 327° |
| 2026-02-18 22:10 | 46.97715 | 10.98696 | 29763 ft | 392 kts | 328° |
| 2026-02-18 22:10 | 47.02685 | 10.95461 | 29781 ft | 393 kts | 328° |
| 2026-02-18 22:11 | 47.07677 | 10.92207 | 29834 ft | 392 kts | 328° |
| 2026-02-18 22:11 | 47.12644 | 10.88950 | 29777 ft | 390 kts | 328° |
| 2026-02-18 22:12 | 47.17630 | 10.85674 | 29753 ft | 394 kts | 328° |
| 2026-02-18 22:12 | 47.22598 | 10.82429 | 29758 ft | 393 kts | 328° |
| 2026-02-18 22:13 | 47.30119 | 10.77452 | 29766 ft | 396 kts | 328° |
| 2026-02-18 22:13 | 47.35137 | 10.74140 | 29749 ft | 395 kts | 328° |
| 2026-02-18 22:14 | 47.40012 | 10.70526 | 29732 ft | 386 kts | 319° |
| 2026-02-18 22:14 | 47.44433 | 10.66035 | 29736 ft | 385 kts | 318° |
| 2026-02-18 22:15 | 47.48849 | 10.61524 | 29740 ft | 385 kts | 318° |
| 2026-02-18 22:15 | 47.53234 | 10.57044 | 29740 ft | 386 kts | 318° |
| 2026-02-18 22:16 | 47.57649 | 10.52514 | 29710 ft | 386 kts | 318° |
| 2026-02-18 22:16 | 47.62088 | 10.47918 | 29714 ft | 391 kts | 317° |
| 2026-02-18 22:17 | 47.68758 | 10.40959 | 29704 ft | 390 kts | 317° |
| 2026-02-18 22:18 | 47.72541 | 10.35522 | 29701 ft | 375 kts | 298° |
| 2026-02-18 22:18 | 47.73709 | 10.32112 | 29703 ft | 368 kts | 287° |
| 2026-02-18 22:18 | 47.74323 | 10.28406 | 29697 ft | 364 kts | 275° |
| 2026-02-18 22:19 | 47.74299 | 10.20967 | 29704 ft | 363 kts | 267° |
| 2026-02-18 22:19 | 47.74082 | 10.13471 | 29710 ft | 363 kts | 267° |
| 2026-02-18 22:20 | 47.73888 | 10.05963 | 29706 ft | 366 kts | 267° |
| 2026-02-18 22:20 | 47.73702 | 9.98367 | 29703 ft | 368 kts | 267° |
| 2026-02-18 22:21 | 47.73413 | 9.87003 | 29703 ft | 367 kts | 267° |
| 2026-02-18 22:21 | 47.73220 | 9.79405 | 29703 ft | 366 kts | 267° |
| 2026-02-18 22:22 | 47.73022 | 9.71928 | 29514 ft | 355 kts | 266° |
| 2026-02-18 22:22 | 47.72925 | 9.68302 | 29065 ft | 350 kts | 266° |
| 2026-02-18 22:22 | 47.72826 | 9.64687 | 28463 ft | 347 kts | 266° |
| 2026-02-18 22:23 | 47.72729 | 9.61116 | 27617 ft | 343 kts | 266° |
| 2026-02-18 22:23 | 47.72631 | 9.57594 | 26714 ft | 340 kts | 266° |
| 2026-02-18 22:23 | 47.72534 | 9.54089 | 25821 ft | 337 kts | 266° |
| 2026-02-18 22:23 | 47.72436 | 9.50616 | 24953 ft | 335 kts | 266° |
| 2026-02-18 22:24 | 47.72336 | 9.47171 | 24106 ft | 333 kts | 266° |
| 2026-02-18 22:24 | 47.72065 | 9.43818 | 23269 ft | 330 kts | 255° |
| 2026-02-18 22:24 | 47.71158 | 9.40700 | 22216 ft | 330 kts | 238° |
| 2026-02-18 22:24 | 47.69756 | 9.37979 | 21236 ft | 328 kts | 233° |
| 2026-02-18 22:25 | 47.66829 | 9.32814 | 19618 ft | 325 kts | 232° |
| 2026-02-18 22:25 | 47.65405 | 9.30272 | 18922 ft | 322 kts | 233° |
| 2026-02-18 22:25 | 47.63967 | 9.27681 | 18226 ft | 320 kts | 233° |
| 2026-02-18 22:26 | 47.62576 | 9.25161 | 17479 ft | 317 kts | 232° |
| 2026-02-18 22:26 | 47.61184 | 9.22643 | 16803 ft | 312 kts | 232° |
| 2026-02-18 22:26 | 47.59800 | 9.20188 | 16136 ft | 307 kts | 229° |
| 2026-02-18 22:26 | 47.58184 | 9.18194 | 15450 ft | 306 kts | 216° |
| 2026-02-18 22:27 | 47.56352 | 9.16595 | 14737 ft | 305 kts | 213° |
| 2026-02-18 22:27 | 47.54485 | 9.15040 | 13848 ft | 309 kts | 213° |
| 2026-02-18 22:27 | 47.52568 | 9.13434 | 12771 ft | 328 kts | 213° |
| 2026-02-18 22:27 | 47.50570 | 9.11750 | 11558 ft | 332 kts | 213° |
| 2026-02-18 22:28 | 47.48553 | 9.10047 | 10319 ft | 335 kts | 213° |
| 2026-02-18 22:28 | 47.46516 | 9.08321 | 9030 ft | 337 kts | 213° |
| 2026-02-18 22:28 | 47.44591 | 9.06428 | 7746 ft | 337 kts | 223° |
| 2026-02-18 22:28 | 47.43142 | 9.03727 | 6649 ft | 336 kts | 242° |
| 2026-02-18 22:29 | 47.42578 | 8.97184 | 5622 ft | 308 kts | 275° |
| 2026-02-18 22:29 | 47.42872 | 8.94159 | 5449 ft | 287 kts | 278° |
| 2026-02-18 22:29 | 47.43174 | 8.91379 | 5268 ft | 269 kts | 277° |
| 2026-02-18 22:30 | 47.43422 | 8.88688 | 5012 ft | 253 kts | 274° |
| 2026-02-18 22:30 | 47.43592 | 8.86208 | 4947 ft | 231 kts | 274° |
| 2026-02-18 22:30 | 47.43746 | 8.84050 | 4995 ft | 198 kts | 274° |
| 2026-02-18 22:30 | 47.43884 | 8.82116 | 4991 ft | 187 kts | 274° |
| 2026-02-18 22:31 | 47.44017 | 8.80236 | 4930 ft | 175 kts | 274° |
| 2026-02-18 22:31 | 47.44138 | 8.78541 | 4718 ft | 159 kts | 274° |
| 2026-02-18 22:31 | 47.44247 | 8.76996 | 4470 ft | 150 kts | 274° |
| 2026-02-18 22:31 | 47.44356 | 8.75446 | 4241 ft | 148 kts | 274° |
| 2026-02-18 22:32 | 47.44463 | 8.73951 | 4021 ft | 148 kts | 274° |
| 2026-02-18 22:32 | 47.44571 | 8.72435 | 3800 ft | 148 kts | 275° |
| 2026-02-18 22:32 | 47.44678 | 8.70930 | 3574 ft | 147 kts | 275° |
| 2026-02-18 22:32 | 47.44787 | 8.69426 | 3253 ft | 145 kts | 276° |
| 2026-02-18 22:33 | 47.44999 | 8.66457 | 2903 ft | 146 kts | 276° |
| 2026-02-18 22:33 | 47.45102 | 8.64970 | 2724 ft | 144 kts | 276° |
| 2026-02-18 22:33 | 47.45191 | 8.63518 | 2442 ft | 140 kts | 276° |
| 2026-02-18 22:34 | 47.45292 | 8.62125 | 2217 ft | 136 kts | 278° |
| 2026-02-18 22:34 | 47.45393 | 8.60739 | 1999 ft | 133 kts | 278° |
| 2026-02-18 22:34 | 47.45492 | 8.59404 | 1795 ft | 132 kts | 278° |
| 2026-02-18 22:34 | 47.45588 | 8.58054 | 1600 ft | 132 kts | 277° |
| 2026-02-18 22:35 | 47.45684 | 8.56709 | 1415 ft | 131 kts | 277° |
| 2026-02-18 22:35 | 47.45767 | 8.55555 | 1404 ft | 80 kts | 275° |
| 2026-02-18 22:35 | 47.45785 | 8.55159 | 1401 ft | 20 kts | 231° |
| 2026-02-18 22:35 | 47.45680 | 8.55180 | 1404 ft | 13 kts | 157° |
| 2026-02-18 22:36 | 47.45577 | 8.55250 | 1408 ft | 13 kts | 154° |
| 2026-02-18 22:36 | 47.45534 | 8.55407 | 1402 ft | 16 kts | 95° |
| 2026-02-18 22:36 | 47.45527 | 8.55505 | 1406 ft | 10 kts | 95° |
| 2026-02-18 22:36 | 47.45522 | 8.55573 | 1402 ft | 9 kts | 97° |
| 2026-02-18 22:37 | 47.45458 | 8.55639 | 1406 ft | 7 kts | 183° |
| 2026-02-18 22:37 | 47.45433 | 8.55635 | 1402 ft | 0 kts | 184° |